sensor_id;sensor_type;location;lat;lon;timestamp;temperature;humidity
56542;DHT22;42438;53.174;6.730;2023-05-01T00:01:15;8.40;91.00
56542;DHT22;42438;53.174;6.730;2023-05-01T00:03:45;8.20;36.50
56542;DHT22;42438;53.174;6.730;2023-05-01T00:06:16;8.10;1.00
56542;DHT22;42438;53.174;6.730;2023-05-01T00:08:47;8.10;1.00
56542;DHT22;42438;53.174;6.730;2023-05-01T00:11:17;8.20;1.00
56542;DHT22;42438;53.174;6.730;2023-05-01T00:13:48;8.10;1.00
56542;DHT22;42438;53.174;6.730;2023-05-01T00:16:19;8.10;1.00
56542;DHT22;42438;53.174;6.730;2023-05-01T00:18:49;8.10;1.00
56542;DHT22;42438;53.174;6.730;2023-05-01T00:21:20;8.10;1.00
56542;DHT22;42438;53.174;6.730;2023-05-01T00:23:50;8.50;1.00
56542;DHT22;42438;53.174;6.730;2023-05-01T00:26:21;8.10;99.90
56542;DHT22;42438;53.174;6.730;2023-05-01T00:28:52;8.10;99.90
56542;DHT22;42438;53.174;6.730;2023-05-01T00:31:25;8.10;99.90
56542;DHT22;42438;53.174;6.730;2023-05-01T00:33:56;8.40;99.90
56542;DHT22;42438;53.174;6.730;2023-05-01T00:36:27;8.10;99.90
56542;DHT22;42438;53.174;6.730;2023-05-01T00:38:57;8.10;99.90
56542;DHT22;42438;53.174;6.730;2023-05-01T00:41:28;8.10;99.90
56542;DHT22;42438;53.174;6.730;2023-05-01T00:43:59;8.10;99.90
56542;DHT22;42438;53.174;6.730;2023-05-01T00:46:31;8.10;99.90
56542;DHT22;42438;53.174;6.730;2023-05-01T00:49:03;8.10;99.90
56542;DHT22;42438;53.174;6.730;2023-05-01T00:51:34;8.10;99.90
56542;DHT22;42438;53.174;6.730;2023-05-01T00:54:05;8.10;99.90
56542;DHT22;42438;53.174;6.730;2023-05-01T00:56:36;8.10;99.90
56542;DHT22;42438;53.174;6.730;2023-05-01T00:59:08;8.00;99.90
56542;DHT22;42438;53.174;6.730;2023-05-01T01:01:40;8.00;99.90
56542;DHT22;42438;53.174;6.730;2023-05-01T01:04:11;8.00;99.90
56542;DHT22;42438;53.174;6.730;2023-05-01T01:18:14;7.90;99.90
56542;DHT22;42438;53.174;6.730;2023-05-01T01:26:44;7.80;99.90
56542;DHT22;42438;53.174;6.730;2023-05-01T01:35:20;7.70;99.90
56542;DHT22;42438;53.174;6.730;2023-05-01T01:38:04;7.60;99.90
56542;DHT22;42438;53.174;6.730;2023-05-01T01:41:29;7.60;99.90
56542;DHT22;42438;53.174;6.730;2023-05-01T01:43:38;7.60;99.90
56542;DHT22;42438;53.174;6.730;2023-05-01T01:46:10;7.60;99.90
56542;DHT22;42438;53.174;6.730;2023-05-01T01:48:42;7.60;99.90
56542;DHT22;42438;53.174;6.730;2023-05-01T01:51:17;7.60;99.90
56542;DHT22;42438;53.174;6.730;2023-05-01T01:53:53;7.70;99.90
56542;DHT22;42438;53.174;6.730;2023-05-01T01:56:26;7.50;99.90
56542;DHT22;42438;53.174;6.730;2023-05-01T01:59:00;7.60;99.90
56542;DHT22;42438;53.174;6.730;2023-05-01T02:01:33;7.60;1.00
56542;DHT22;42438;53.174;6.730;2023-05-01T02:04:04;7.50;1.00
56542;DHT22;42438;53.174;6.730;2023-05-01T02:06:37;7.40;1.00
56542;DHT22;42438;53.174;6.730;2023-05-01T02:09:09;7.40;1.00
56542;DHT22;42438;53.174;6.730;2023-05-01T02:11:41;7.40;1.00
56542;DHT22;42438;53.174;6.730;2023-05-01T02:14:14;7.40;1.00
56542;DHT22;42438;53.174;6.730;2023-05-01T02:16:45;7.40;1.00
56542;DHT22;42438;53.174;6.730;2023-05-01T02:19:17;7.60;1.00
56542;DHT22;42438;53.174;6.730;2023-05-01T02:21:49;7.40;1.00
56542;DHT22;42438;53.174;6.730;2023-05-01T02:24:21;7.40;1.00
56542;DHT22;42438;53.174;6.730;2023-05-01T02:26:56;7.80;1.00
56542;DHT22;42438;53.174;6.730;2023-05-01T02:29:29;7.30;1.00
56542;DHT22;42438;53.174;6.730;2023-05-01T02:32:00;7.30;1.00
56542;DHT22;42438;53.174;6.730;2023-05-01T02:34:33;7.20;1.00
56542;DHT22;42438;53.174;6.730;2023-05-01T02:37:05;7.20;1.00
56542;DHT22;42438;53.174;6.730;2023-05-01T02:39:38;7.20;1.00
56542;DHT22;42438;53.174;6.730;2023-05-01T02:42:10;7.30;1.00
56542;DHT22;42438;53.174;6.730;2023-05-01T02:44:53;7.10;1.00
56542;DHT22;42438;53.174;6.730;2023-05-01T02:47:26;7.00;28.60
56542;DHT22;42438;53.174;6.730;2023-05-01T02:49:58;7.00;40.80
56542;DHT22;42438;53.174;6.730;2023-05-01T02:52:29;7.20;72.60
56542;DHT22;42438;53.174;6.730;2023-05-01T02:55:00;6.90;95.40
56542;DHT22;42438;53.174;6.730;2023-05-01T02:57:32;6.90;99.90
56542;DHT22;42438;53.174;6.730;2023-05-01T03:00:03;6.80;99.90
56542;DHT22;42438;53.174;6.730;2023-05-01T03:02:34;6.80;99.90
56542;DHT22;42438;53.174;6.730;2023-05-01T03:05:05;6.70;99.90
56542;DHT22;42438;53.174;6.730;2023-05-01T03:07:36;6.70;99.90
56542;DHT22;42438;53.174;6.730;2023-05-01T03:10:07;6.60;99.90
56542;DHT22;42438;53.174;6.730;2023-05-01T03:12:38;6.60;99.90
56542;DHT22;42438;53.174;6.730;2023-05-01T03:15:09;6.50;99.90
56542;DHT22;42438;53.174;6.730;2023-05-01T03:17:41;6.50;99.90
56542;DHT22;42438;53.174;6.730;2023-05-01T03:20:12;6.40;99.90
56542;DHT22;42438;53.174;6.730;2023-05-01T03:22:43;6.40;1.00
56542;DHT22;42438;53.174;6.730;2023-05-01T03:25:13;6.90;1.00
56542;DHT22;42438;53.174;6.730;2023-05-01T03:27:44;6.40;1.00
56542;DHT22;42438;53.174;6.730;2023-05-01T03:30:15;6.30;1.00
56542;DHT22;42438;53.174;6.730;2023-05-01T03:32:46;6.30;1.00
56542;DHT22;42438;53.174;6.730;2023-05-01T03:35:17;6.30;1.00
56542;DHT22;42438;53.174;6.730;2023-05-01T03:37:47;6.40;1.00
56542;DHT22;42438;53.174;6.730;2023-05-01T03:40:18;6.30;1.00
56542;DHT22;42438;53.174;6.730;2023-05-01T03:42:49;6.40;1.00
56542;DHT22;42438;53.174;6.730;2023-05-01T03:45:20;6.30;1.00
56542;DHT22;42438;53.174;6.730;2023-05-01T03:47:50;6.30;1.00
56542;DHT22;42438;53.174;6.730;2023-05-01T03:50:21;6.20;1.00
56542;DHT22;42438;53.174;6.730;2023-05-01T03:52:52;6.20;1.00
56542;DHT22;42438;53.174;6.730;2023-05-01T03:55:23;6.20;1.00
56542;DHT22;42438;53.174;6.730;2023-05-01T03:57:53;6.20;1.00
56542;DHT22;42438;53.174;6.730;2023-05-01T04:00:25;6.20;20.70
56542;DHT22;42438;53.174;6.730;2023-05-01T04:02:56;6.20;26.30
56542;DHT22;42438;53.174;6.730;2023-05-01T04:05:27;6.20;35.60
56542;DHT22;42438;53.174;6.730;2023-05-01T04:07:57;6.20;52.90
56542;DHT22;42438;53.174;6.730;2023-05-01T04:10:28;6.20;85.30
56542;DHT22;42438;53.174;6.730;2023-05-01T04:12:59;6.10;99.90
56542;DHT22;42438;53.174;6.730;2023-05-01T04:15:29;6.10;99.90
56542;DHT22;42438;53.174;6.730;2023-05-01T04:18:00;6.10;99.90
56542;DHT22;42438;53.174;6.730;2023-05-01T04:20:31;6.10;99.90
56542;DHT22;42438;53.174;6.730;2023-05-01T04:23:02;6.10;99.90
56542;DHT22;42438;53.174;6.730;2023-05-01T04:25:33;6.10;99.90
56542;DHT22;42438;53.174;6.730;2023-05-01T04:28:03;6.60;99.90
56542;DHT22;42438;53.174;6.730;2023-05-01T04:30:35;6.10;99.90
56542;DHT22;42438;53.174;6.730;2023-05-01T04:33:06;6.20;1.00
56542;DHT22;42438;53.174;6.730;2023-05-01T04:35:40;6.20;1.00
56542;DHT22;42438;53.174;6.730;2023-05-01T04:38:11;6.20;1.00
56542;DHT22;42438;53.174;6.730;2023-05-01T04:40:42;6.20;1.00
56542;DHT22;42438;53.174;6.730;2023-05-01T04:43:12;6.20;1.00
56542;DHT22;42438;53.174;6.730;2023-05-01T04:45:43;6.30;1.00
56542;DHT22;42438;53.174;6.730;2023-05-01T04:48:14;6.30;99.90
56542;DHT22;42438;53.174;6.730;2023-05-01T04:50:44;6.80;99.90
56542;DHT22;42438;53.174;6.730;2023-05-01T04:53:15;6.40;99.90
56542;DHT22;42438;53.174;6.730;2023-05-01T04:55:46;6.40;99.90
56542;DHT22;42438;53.174;6.730;2023-05-01T04:58:16;6.40;99.90
56542;DHT22;42438;53.174;6.730;2023-05-01T05:00:47;6.50;99.90
56542;DHT22;42438;53.174;6.730;2023-05-01T05:03:18;6.60;99.90
56542;DHT22;42438;53.174;6.730;2023-05-01T05:05:49;6.60;99.90
56542;DHT22;42438;53.174;6.730;2023-05-01T05:08:19;7.00;99.90
56542;DHT22;42438;53.174;6.730;2023-05-01T05:10:58;6.90;99.90
56542;DHT22;42438;53.174;6.730;2023-05-01T05:13:29;7.40;99.90
56542;DHT22;42438;53.174;6.730;2023-05-01T05:16:00;7.00;99.90
56542;DHT22;42438;53.174;6.730;2023-05-01T05:18:30;7.10;99.90
56542;DHT22;42438;53.174;6.730;2023-05-01T05:21:05;7.20;99.90
56542;DHT22;42438;53.174;6.730;2023-05-01T05:23:36;7.30;99.90
56542;DHT22;42438;53.174;6.730;2023-05-01T05:26:07;7.40;99.90
56542;DHT22;42438;53.174;6.730;2023-05-01T05:28:37;7.50;99.90
56542;DHT22;42438;53.174;6.730;2023-05-01T05:31:08;7.60;99.90
56542;DHT22;42438;53.174;6.730;2023-05-01T05:33:38;7.70;86.20
56542;DHT22;42438;53.174;6.730;2023-05-01T05:36:09;7.90;2.50
56542;DHT22;42438;53.174;6.730;2023-05-01T05:38:40;8.00;1.00
56542;DHT22;42438;53.174;6.730;2023-05-01T05:41:11;8.10;1.00
56542;DHT22;42438;53.174;6.730;2023-05-01T05:43:42;8.20;99.90
56542;DHT22;42438;53.174;6.730;2023-05-01T05:46:13;8.30;99.90
56542;DHT22;42438;53.174;6.730;2023-05-01T05:48:43;8.50;1.00
56542;DHT22;42438;53.174;6.730;2023-05-01T05:51:14;8.50;99.90
56542;DHT22;42438;53.174;6.730;2023-05-01T05:53:45;8.60;99.90
56542;DHT22;42438;53.174;6.730;2023-05-01T05:56:15;9.10;1.00
56542;DHT22;42438;53.174;6.730;2023-05-01T05:58:46;8.80;1.00
56542;DHT22;42438;53.174;6.730;2023-05-01T06:01:17;9.10;99.90
56542;DHT22;42438;53.174;6.730;2023-05-01T06:03:47;9.50;99.90
56542;DHT22;42438;53.174;6.730;2023-05-01T06:06:18;9.20;99.90
56542;DHT22;42438;53.174;6.730;2023-05-01T06:08:49;9.30;99.90
56542;DHT22;42438;53.174;6.730;2023-05-01T06:11:19;9.60;99.90
56542;DHT22;42438;53.174;6.730;2023-05-01T06:13:51;9.60;99.90
56542;DHT22;42438;53.174;6.730;2023-05-01T06:16:22;9.60;99.90
56542;DHT22;42438;53.174;6.730;2023-05-01T06:18:52;9.70;99.90
56542;DHT22;42438;53.174;6.730;2023-05-01T06:21:23;9.80;99.90
56542;DHT22;42438;53.174;6.730;2023-05-01T06:23:53;9.90;99.90
56542;DHT22;42438;53.174;6.730;2023-05-01T06:26:24;10.00;98.10
56542;DHT22;42438;53.174;6.730;2023-05-01T06:28:55;10.00;70.50
56542;DHT22;42438;53.174;6.730;2023-05-01T06:31:26;10.10;37.60
56542;DHT22;42438;53.174;6.730;2023-05-01T06:33:56;10.10;19.90
56542;DHT22;42438;53.174;6.730;2023-05-01T06:36:27;10.20;8.50
56542;DHT22;42438;53.174;6.730;2023-05-01T06:38:58;10.30;9.40
56542;DHT22;42438;53.174;6.730;2023-05-01T06:41:28;10.40;1.00
56542;DHT22;42438;53.174;6.730;2023-05-01T06:43:59;10.50;1.00
56542;DHT22;42438;53.174;6.730;2023-05-01T06:46:30;10.40;1.00
56542;DHT22;42438;53.174;6.730;2023-05-01T06:49:00;10.50;1.00
56542;DHT22;42438;53.174;6.730;2023-05-01T06:51:31;10.70;1.00
56542;DHT22;42438;53.174;6.730;2023-05-01T06:54:02;10.80;1.00
56542;DHT22;42438;53.174;6.730;2023-05-01T06:56:33;10.90;1.00
56542;DHT22;42438;53.174;6.730;2023-05-01T06:59:03;10.90;1.00
56542;DHT22;42438;53.174;6.730;2023-05-01T07:01:35;11.00;1.00
56542;DHT22;42438;53.174;6.730;2023-05-01T07:04:06;11.20;1.00
56542;DHT22;42438;53.174;6.730;2023-05-01T07:06:36;11.20;1.00
56542;DHT22;42438;53.174;6.730;2023-05-01T07:09:07;11.30;1.00
56542;DHT22;42438;53.174;6.730;2023-05-01T07:11:38;11.50;1.00
56542;DHT22;42438;53.174;6.730;2023-05-01T07:14:08;11.60;1.00
56542;DHT22;42438;53.174;6.730;2023-05-01T07:16:39;11.70;1.00
56542;DHT22;42438;53.174;6.730;2023-05-01T07:19:10;11.90;1.00
56542;DHT22;42438;53.174;6.730;2023-05-01T07:21:42;11.90;1.00
56542;DHT22;42438;53.174;6.730;2023-05-01T07:24:13;12.00;1.00
56542;DHT22;42438;53.174;6.730;2023-05-01T07:26:44;12.10;1.00
56542;DHT22;42438;53.174;6.730;2023-05-01T07:29:14;12.20;1.00
56542;DHT22;42438;53.174;6.730;2023-05-01T07:31:45;12.40;1.00
56542;DHT22;42438;53.174;6.730;2023-05-01T07:34:17;12.50;1.00
56542;DHT22;42438;53.174;6.730;2023-05-01T07:36:48;12.70;1.00
56542;DHT22;42438;53.174;6.730;2023-05-01T07:39:19;12.90;1.00
56542;DHT22;42438;53.174;6.730;2023-05-01T07:41:50;13.00;1.00
56542;DHT22;42438;53.174;6.730;2023-05-01T07:44:20;13.10;1.00
56542;DHT22;42438;53.174;6.730;2023-05-01T07:46:51;13.10;1.00
56542;DHT22;42438;53.174;6.730;2023-05-01T07:49:21;13.20;1.00
56542;DHT22;42438;53.174;6.730;2023-05-01T07:51:53;13.40;1.00
56542;DHT22;42438;53.174;6.730;2023-05-01T07:54:25;13.50;1.00
56542;DHT22;42438;53.174;6.730;2023-05-01T07:56:55;13.60;1.00
56542;DHT22;42438;53.174;6.730;2023-05-01T07:59:27;13.70;1.00
56542;DHT22;42438;53.174;6.730;2023-05-01T08:01:58;13.90;1.00
56542;DHT22;42438;53.174;6.730;2023-05-01T08:04:28;14.00;1.00
56542;DHT22;42438;53.174;6.730;2023-05-01T08:07:00;14.10;1.00
56542;DHT22;42438;53.174;6.730;2023-05-01T08:09:30;14.20;1.00
56542;DHT22;42438;53.174;6.730;2023-05-01T08:12:01;14.30;1.00
56542;DHT22;42438;53.174;6.730;2023-05-01T08:14:33;14.30;1.00
56542;DHT22;42438;53.174;6.730;2023-05-01T08:17:03;14.40;1.00
56542;DHT22;42438;53.174;6.730;2023-05-01T08:19:34;14.50;1.00
56542;DHT22;42438;53.174;6.730;2023-05-01T08:22:05;14.60;1.00
56542;DHT22;42438;53.174;6.730;2023-05-01T08:24:35;14.70;1.00
56542;DHT22;42438;53.174;6.730;2023-05-01T08:27:06;14.80;1.00
56542;DHT22;42438;53.174;6.730;2023-05-01T08:29:37;14.90;1.00
56542;DHT22;42438;53.174;6.730;2023-05-01T08:32:08;14.90;1.00
56542;DHT22;42438;53.174;6.730;2023-05-01T08:34:39;15.00;1.00
56542;DHT22;42438;53.174;6.730;2023-05-01T08:37:09;15.00;1.00
56542;DHT22;42438;53.174;6.730;2023-05-01T08:39:40;15.10;1.00
56542;DHT22;42438;53.174;6.730;2023-05-01T08:42:11;15.20;1.00
56542;DHT22;42438;53.174;6.730;2023-05-01T08:44:44;15.40;1.00
56542;DHT22;42438;53.174;6.730;2023-05-01T08:47:16;15.50;1.00
56542;DHT22;42438;53.174;6.730;2023-05-01T08:49:49;15.60;1.00
56542;DHT22;42438;53.174;6.730;2023-05-01T08:52:21;15.70;1.00
56542;DHT22;42438;53.174;6.730;2023-05-01T08:54:53;15.60;1.00
56542;DHT22;42438;53.174;6.730;2023-05-01T08:57:27;15.60;1.00
56542;DHT22;42438;53.174;6.730;2023-05-01T09:00:00;15.70;1.00
56542;DHT22;42438;53.174;6.730;2023-05-01T09:02:34;15.70;1.00
56542;DHT22;42438;53.174;6.730;2023-05-01T09:05:05;15.90;1.00
56542;DHT22;42438;53.174;6.730;2023-05-01T09:07:37;16.00;1.00
56542;DHT22;42438;53.174;6.730;2023-05-01T09:10:14;16.30;1.00
56542;DHT22;42438;53.174;6.730;2023-05-01T09:12:54;16.50;1.00
56542;DHT22;42438;53.174;6.730;2023-05-01T09:15:27;16.60;1.00
56542;DHT22;42438;53.174;6.730;2023-05-01T09:17:59;16.70;1.00
56542;DHT22;42438;53.174;6.730;2023-05-01T09:20:31;16.70;1.00
56542;DHT22;42438;53.174;6.730;2023-05-01T09:23:02;16.70;1.00
56542;DHT22;42438;53.174;6.730;2023-05-01T09:25:33;16.80;1.00
56542;DHT22;42438;53.174;6.730;2023-05-01T09:28:04;16.80;1.00
56542;DHT22;42438;53.174;6.730;2023-05-01T09:30:37;16.90;1.00
56542;DHT22;42438;53.174;6.730;2023-05-01T09:33:09;17.10;1.00
56542;DHT22;42438;53.174;6.730;2023-05-01T09:35:53;17.20;1.00
56542;DHT22;42438;53.174;6.730;2023-05-01T09:38:26;17.30;1.00
56542;DHT22;42438;53.174;6.730;2023-05-01T09:41:03;17.50;1.00
56542;DHT22;42438;53.174;6.730;2023-05-01T09:43:34;17.50;1.00
56542;DHT22;42438;53.174;6.730;2023-05-01T09:46:07;17.50;1.00
56542;DHT22;42438;53.174;6.730;2023-05-01T09:48:55;17.40;1.00
56542;DHT22;42438;53.174;6.730;2023-05-01T09:51:31;17.50;1.00
56542;DHT22;42438;53.174;6.730;2023-05-01T09:54:04;17.60;1.00
56542;DHT22;42438;53.174;6.730;2023-05-01T09:56:47;17.90;1.00
56542;DHT22;42438;53.174;6.730;2023-05-01T09:59:19;18.00;1.00
56542;DHT22;42438;53.174;6.730;2023-05-01T10:01:50;18.00;1.00
56542;DHT22;42438;53.174;6.730;2023-05-01T10:04:34;18.10;1.00
56542;DHT22;42438;53.174;6.730;2023-05-01T10:07:12;18.20;1.00
56542;DHT22;42438;53.174;6.730;2023-05-01T10:09:43;18.20;1.00
56542;DHT22;42438;53.174;6.730;2023-05-01T10:12:24;18.20;1.00
56542;DHT22;42438;53.174;6.730;2023-05-01T10:14:56;18.30;1.00
56542;DHT22;42438;53.174;6.730;2023-05-01T10:17:27;18.40;1.00
56542;DHT22;42438;53.174;6.730;2023-05-01T10:19:58;18.50;1.00
56542;DHT22;42438;53.174;6.730;2023-05-01T10:22:29;18.60;1.00
56542;DHT22;42438;53.174;6.730;2023-05-01T10:24:59;18.60;1.00
56542;DHT22;42438;53.174;6.730;2023-05-01T10:27:31;18.50;1.00
56542;DHT22;42438;53.174;6.730;2023-05-01T10:30:03;18.60;1.00
56542;DHT22;42438;53.174;6.730;2023-05-01T10:32:37;18.70;1.00
56542;DHT22;42438;53.174;6.730;2023-05-01T10:35:18;18.70;1.00
56542;DHT22;42438;53.174;6.730;2023-05-01T10:37:58;18.60;1.00
56542;DHT22;42438;53.174;6.730;2023-05-01T10:45:46;18.70;1.00
56542;DHT22;42438;53.174;6.730;2023-05-01T10:51:14;18.70;1.00
56542;DHT22;42438;53.174;6.730;2023-05-01T10:53:47;18.60;1.00
56542;DHT22;42438;53.174;6.730;2023-05-01T10:59:00;18.80;1.00
56542;DHT22;42438;53.174;6.730;2023-05-01T11:01:41;18.90;1.00
56542;DHT22;42438;53.174;6.730;2023-05-01T11:09:47;18.90;1.00
56542;DHT22;42438;53.174;6.730;2023-05-01T11:12:47;18.70;1.00
56542;DHT22;42438;53.174;6.730;2023-05-01T11:15:27;18.60;1.00
56542;DHT22;42438;53.174;6.730;2023-05-01T11:18:01;18.60;1.00
56542;DHT22;42438;53.174;6.730;2023-05-01T11:23:06;18.70;1.00
56542;DHT22;42438;53.174;6.730;2023-05-01T11:25:37;18.80;1.00
56542;DHT22;42438;53.174;6.730;2023-05-01T11:28:09;18.80;1.00
56542;DHT22;42438;53.174;6.730;2023-05-01T11:30:41;18.80;1.00
56542;DHT22;42438;53.174;6.730;2023-05-01T11:33:11;18.90;1.00
56542;DHT22;42438;53.174;6.730;2023-05-01T11:35:43;18.90;1.00
56542;DHT22;42438;53.174;6.730;2023-05-01T11:38:17;18.90;1.00
56542;DHT22;42438;53.174;6.730;2023-05-01T11:40:53;19.00;1.00
56542;DHT22;42438;53.174;6.730;2023-05-01T11:43:25;19.10;1.00
56542;DHT22;42438;53.174;6.730;2023-05-01T11:45:56;19.20;1.00
56542;DHT22;42438;53.174;6.730;2023-05-01T11:48:31;19.40;1.00
56542;DHT22;42438;53.174;6.730;2023-05-01T11:51:11;19.40;1.00
56542;DHT22;42438;53.174;6.730;2023-05-01T11:53:42;19.30;1.00
56542;DHT22;42438;53.174;6.730;2023-05-01T11:56:19;19.30;1.00
56542;DHT22;42438;53.174;6.730;2023-05-01T11:58:50;19.20;1.00
56542;DHT22;42438;53.174;6.730;2023-05-01T12:01:44;19.10;1.00
56542;DHT22;42438;53.174;6.730;2023-05-01T12:04:26;19.30;1.00
56542;DHT22;42438;53.174;6.730;2023-05-01T12:06:57;19.40;1.00
56542;DHT22;42438;53.174;6.730;2023-05-01T12:09:28;19.40;1.00
56542;DHT22;42438;53.174;6.730;2023-05-01T12:11:59;19.30;1.00
56542;DHT22;42438;53.174;6.730;2023-05-01T12:14:32;19.20;1.00
56542;DHT22;42438;53.174;6.730;2023-05-01T12:17:05;19.20;1.00
56542;DHT22;42438;53.174;6.730;2023-05-01T12:19:45;19.20;1.00
56542;DHT22;42438;53.174;6.730;2023-05-01T12:22:18;19.30;1.00
56542;DHT22;42438;53.174;6.730;2023-05-01T12:24:50;19.30;1.00
56542;DHT22;42438;53.174;6.730;2023-05-01T12:27:22;19.30;1.00
56542;DHT22;42438;53.174;6.730;2023-05-01T12:29:53;19.30;1.00
56542;DHT22;42438;53.174;6.730;2023-05-01T12:32:29;19.30;1.00
56542;DHT22;42438;53.174;6.730;2023-05-01T12:35:12;19.20;1.00
56542;DHT22;42438;53.174;6.730;2023-05-01T12:37:42;19.20;1.00
56542;DHT22;42438;53.174;6.730;2023-05-01T12:40:13;19.40;1.00
56542;DHT22;42438;53.174;6.730;2023-05-01T12:42:53;19.70;1.00
56542;DHT22;42438;53.174;6.730;2023-05-01T12:45:24;20.00;1.00
56542;DHT22;42438;53.174;6.730;2023-05-01T12:47:54;20.10;1.00
56542;DHT22;42438;53.174;6.730;2023-05-01T12:50:25;20.30;1.00
56542;DHT22;42438;53.174;6.730;2023-05-01T12:53:01;20.20;1.00
56542;DHT22;42438;53.174;6.730;2023-05-01T12:55:44;20.20;1.00
56542;DHT22;42438;53.174;6.730;2023-05-01T12:58:16;20.00;1.00
56542;DHT22;42438;53.174;6.730;2023-05-01T13:03:23;19.80;1.00
56542;DHT22;42438;53.174;6.730;2023-05-01T13:05:59;19.70;1.00
56542;DHT22;42438;53.174;6.730;2023-05-01T13:08:31;19.60;1.00
56542;DHT22;42438;53.174;6.730;2023-05-01T13:11:10;19.50;1.00
56542;DHT22;42438;53.174;6.730;2023-05-01T13:13:44;19.60;1.00
56542;DHT22;42438;53.174;6.730;2023-05-01T13:16:15;19.50;1.00
56542;DHT22;42438;53.174;6.730;2023-05-01T13:18:50;19.50;1.00
56542;DHT22;42438;53.174;6.730;2023-05-01T13:21:22;19.50;1.00
56542;DHT22;42438;53.174;6.730;2023-05-01T13:23:59;19.50;1.00
56542;DHT22;42438;53.174;6.730;2023-05-01T13:26:32;19.40;1.00
56542;DHT22;42438;53.174;6.730;2023-05-01T13:29:04;19.40;1.00
56542;DHT22;42438;53.174;6.730;2023-05-01T13:31:35;19.40;1.00
56542;DHT22;42438;53.174;6.730;2023-05-01T13:34:06;19.40;1.00
56542;DHT22;42438;53.174;6.730;2023-05-01T13:36:39;19.30;1.00
56542;DHT22;42438;53.174;6.730;2023-05-01T13:39:10;19.30;1.00
56542;DHT22;42438;53.174;6.730;2023-05-01T13:41:46;19.40;1.00
56542;DHT22;42438;53.174;6.730;2023-05-01T13:44:17;19.30;1.00
56542;DHT22;42438;53.174;6.730;2023-05-01T13:46:48;19.20;1.00
56542;DHT22;42438;53.174;6.730;2023-05-01T13:49:20;19.00;1.00
56542;DHT22;42438;53.174;6.730;2023-05-01T13:51:55;18.90;1.00
56542;DHT22;42438;53.174;6.730;2023-05-01T13:54:25;18.80;1.00
56542;DHT22;42438;53.174;6.730;2023-05-01T13:56:57;18.80;1.00
56542;DHT22;42438;53.174;6.730;2023-05-01T13:59:37;18.80;1.00
56542;DHT22;42438;53.174;6.730;2023-05-01T14:02:26;18.80;1.00
56542;DHT22;42438;53.174;6.730;2023-05-01T14:04:57;18.70;1.00
56542;DHT22;42438;53.174;6.730;2023-05-01T14:07:27;18.70;1.00
56542;DHT22;42438;53.174;6.730;2023-05-01T14:09:58;18.60;1.00
56542;DHT22;42438;53.174;6.730;2023-05-01T14:12:30;18.50;1.00
56542;DHT22;42438;53.174;6.730;2023-05-01T14:15:01;18.30;1.00
56542;DHT22;42438;53.174;6.730;2023-05-01T14:17:33;18.10;1.00
56542;DHT22;42438;53.174;6.730;2023-05-01T14:20:06;18.00;1.00
56542;DHT22;42438;53.174;6.730;2023-05-01T14:22:43;17.90;1.00
56542;DHT22;42438;53.174;6.730;2023-05-01T14:25:32;17.80;1.00
56542;DHT22;42438;53.174;6.730;2023-05-01T14:28:05;17.70;1.00
56542;DHT22;42438;53.174;6.730;2023-05-01T14:30:39;17.70;1.00
56542;DHT22;42438;53.174;6.730;2023-05-01T14:33:12;17.60;1.00
56542;DHT22;42438;53.174;6.730;2023-05-01T14:35:50;17.50;1.00
56542;DHT22;42438;53.174;6.730;2023-05-01T14:38:21;17.50;1.00
56542;DHT22;42438;53.174;6.730;2023-05-01T14:40:53;17.40;1.00
56542;DHT22;42438;53.174;6.730;2023-05-01T14:43:26;17.30;1.00
56542;DHT22;42438;53.174;6.730;2023-05-01T14:45:57;17.30;1.00
56542;DHT22;42438;53.174;6.730;2023-05-01T14:48:35;17.20;1.00
56542;DHT22;42438;53.174;6.730;2023-05-01T14:51:17;17.10;1.00
56542;DHT22;42438;53.174;6.730;2023-05-01T14:53:48;17.10;1.00
56542;DHT22;42438;53.174;6.730;2023-05-01T14:56:19;17.20;1.00
56542;DHT22;42438;53.174;6.730;2023-05-01T14:58:50;17.20;1.00
56542;DHT22;42438;53.174;6.730;2023-05-01T15:01:21;17.10;1.00
56542;DHT22;42438;53.174;6.730;2023-05-01T15:03:51;17.10;1.00
56542;DHT22;42438;53.174;6.730;2023-05-01T15:06:23;17.10;1.00
56542;DHT22;42438;53.174;6.730;2023-05-01T15:08:54;17.10;1.00
56542;DHT22;42438;53.174;6.730;2023-05-01T15:11:25;17.00;1.00
56542;DHT22;42438;53.174;6.730;2023-05-01T15:13:55;17.00;1.00
56542;DHT22;42438;53.174;6.730;2023-05-01T15:16:26;17.10;1.00
56542;DHT22;42438;53.174;6.730;2023-05-01T15:18:57;17.10;1.00
56542;DHT22;42438;53.174;6.730;2023-05-01T15:21:28;17.20;1.00
56542;DHT22;42438;53.174;6.730;2023-05-01T15:23:58;17.10;1.00
56542;DHT22;42438;53.174;6.730;2023-05-01T15:26:29;17.10;1.00
56542;DHT22;42438;53.174;6.730;2023-05-01T15:29:01;17.20;1.00
56542;DHT22;42438;53.174;6.730;2023-05-01T15:31:31;17.20;1.00
56542;DHT22;42438;53.174;6.730;2023-05-01T15:34:02;17.30;1.00
56542;DHT22;42438;53.174;6.730;2023-05-01T15:36:32;17.40;1.00
56542;DHT22;42438;53.174;6.730;2023-05-01T15:39:03;17.40;1.00
56542;DHT22;42438;53.174;6.730;2023-05-01T15:41:37;17.30;1.00
56542;DHT22;42438;53.174;6.730;2023-05-01T15:44:07;17.10;1.00
56542;DHT22;42438;53.174;6.730;2023-05-01T15:46:40;17.10;1.00
56542;DHT22;42438;53.174;6.730;2023-05-01T15:49:10;17.00;1.00
56542;DHT22;42438;53.174;6.730;2023-05-01T15:51:41;16.90;1.00
56542;DHT22;42438;53.174;6.730;2023-05-01T15:54:12;16.70;1.00
56542;DHT22;42438;53.174;6.730;2023-05-01T15:56:42;16.60;1.00
56542;DHT22;42438;53.174;6.730;2023-05-01T15:59:13;16.50;1.00
56542;DHT22;42438;53.174;6.730;2023-05-01T16:01:44;16.30;1.00
56542;DHT22;42438;53.174;6.730;2023-05-01T16:04:14;16.30;1.00
56542;DHT22;42438;53.174;6.730;2023-05-01T16:06:45;16.10;1.00
56542;DHT22;42438;53.174;6.730;2023-05-01T16:09:16;16.00;1.00
56542;DHT22;42438;53.174;6.730;2023-05-01T16:11:46;15.90;1.00
56542;DHT22;42438;53.174;6.730;2023-05-01T16:14:17;15.90;1.00
56542;DHT22;42438;53.174;6.730;2023-05-01T16:16:48;16.00;1.00
56542;DHT22;42438;53.174;6.730;2023-05-01T16:19:18;16.10;1.00
56542;DHT22;42438;53.174;6.730;2023-05-01T16:21:49;16.30;1.00
56542;DHT22;42438;53.174;6.730;2023-05-01T16:24:20;16.30;1.00
56542;DHT22;42438;53.174;6.730;2023-05-01T16:26:50;16.30;1.00
56542;DHT22;42438;53.174;6.730;2023-05-01T16:29:21;16.10;1.00
56542;DHT22;42438;53.174;6.730;2023-05-01T16:31:52;16.10;1.00
56542;DHT22;42438;53.174;6.730;2023-05-01T16:34:25;15.90;1.00
56542;DHT22;42438;53.174;6.730;2023-05-01T16:36:56;15.80;1.00
56542;DHT22;42438;53.174;6.730;2023-05-01T16:39:27;15.80;1.00
56542;DHT22;42438;53.174;6.730;2023-05-01T16:41:58;15.70;1.00
56542;DHT22;42438;53.174;6.730;2023-05-01T16:44:28;15.60;1.00
56542;DHT22;42438;53.174;6.730;2023-05-01T16:46:59;15.50;1.00
56542;DHT22;42438;53.174;6.730;2023-05-01T16:50:41;15.60;1.00
56542;DHT22;42438;53.174;6.730;2023-05-01T16:53:12;15.60;1.00
56542;DHT22;42438;53.174;6.730;2023-05-01T16:55:43;15.60;1.00
56542;DHT22;42438;53.174;6.730;2023-05-01T16:58:14;15.60;1.00
56542;DHT22;42438;53.174;6.730;2023-05-01T17:00:44;15.50;1.00
56542;DHT22;42438;53.174;6.730;2023-05-01T17:03:15;15.50;1.00
56542;DHT22;42438;53.174;6.730;2023-05-01T17:05:46;15.50;1.00